Time;durP1;ratioP1;P1;durP2;ratioP2;P2;SDS_P1;SDS_P2;PMS_P1;PMS_P2;Temp;Humidity;BMP_temperature;BMP_pressure;BME280_temperature;BME280_humidity;BME280_pressure;Samples;Min_cycle;Max_cycle;Signal;HPM_P1;HPM_P2
2021/01/16 00:01:03;;;;;;;11.40;9.18;;;2.00;92.00;;;;;;6247704;22;20333;-82
2021/01/16 00:03:29;;;;;;;10.65;8.60;;;1.90;90.80;;;;;;6248953;22;20049;-83
2021/01/16 00:05:59;;;;;;;9.85;8.35;;;1.80;91.10;;;;;;6248542;22;20019;-82
2021/01/16 00:08:27;;;;;;;9.77;8.35;;;1.60;91.80;;;;;;6246482;22;20097;-82
2021/01/16 00:10:56;;;;;;;11.93;8.30;;;1.60;91.30;;;;;;6276383;22;20007;-81
2021/01/16 00:13:27;;;;;;;12.57;8.82;;;1.70;91.80;;;;;;6275270;22;19992;-80
2021/01/16 00:15:53;;;;;;;;;;;1.60;92.50;;;;;;6276307;22;20007;-81
2021/01/16 00:18:28;;;;;;;12.13;8.50;;;1.50;92.60;;;;;;6274330;22;19911;-86
2021/01/16 00:20:58;;;;;;;12.15;9.13;;;1.70;92.70;;;;;;6276835;22;20014;-84
2021/01/16 00:23:26;;;;;;;13.10;9.27;;;1.90;93.20;;;;;;6275993;22;20000;-81
2021/01/16 00:25:53;;;;;;;11.48;8.80;;;1.90;93.00;;;;;;6276751;22;20046;-81
2021/01/16 00:28:30;;;;;;;15.00;9.90;;;1.50;93.30;;;;;;6276328;22;20550;-83
2021/01/16 00:30:57;;;;;;;11.95;9.52;;;1.50;94.30;;;;;;6276623;22;20003;-82
2021/01/16 00:33:24;;;;;;;14.52;9.70;;;1.50;94.60;;;;;;6276271;22;20000;-81
2021/01/16 00:35:52;;;;;;;14.60;11.02;;;1.60;95.00;;;;;;6276450;22;20384;-80
2021/01/16 00:38:19;;;;;;;13.25;9.27;;;1.90;94.40;;;;;;6276117;22;20000;-82
2021/01/16 00:40:45;;;;;;;11.30;8.65;;;1.80;93.60;;;;;;6249305;22;20014;-80
2021/01/16 00:43:12;;;;;;;14.40;10.43;;;1.90;94.20;;;;;;6276359;22;19995;-81
2021/01/16 00:45:42;;;;;;;13.10;9.85;;;2.00;93.40;;;;;;6275688;22;20441;-78
2021/01/16 00:48:11;;;;;;;16.27;10.35;;;1.80;94.10;;;;;;6249329;22;20011;-82
2021/01/16 00:50:38;;;;;;;14.35;10.45;;;1.90;92.70;;;;;;6249164;22;20095;-82
2021/01/16 00:53:04;;;;;;;14.32;9.77;;;2.00;93.10;;;;;;6275637;22;20035;-80
2021/01/16 00:55:30;;;;;;;16.10;10.68;;;2.10;94.20;;;;;;6276126;22;20022;-80
2021/01/16 00:57:56;;;;;;;15.30;11.13;;;2.10;94.20;;;;;;6276637;22;20095;-81
2021/01/16 01:00:24;;;;;;;15.00;10.40;;;2.20;94.30;;;;;;6276840;22;19996;-82
2021/01/16 01:02:50;;;;;;;17.35;11.63;;;2.30;95.10;;;;;;6249631;22;20014;-82
2021/01/16 01:05:18;;;;;;;20.50;12.82;;;2.30;95.50;;;;;;6276305;22;20003;-81
2021/01/16 01:07:48;;;;;;;18.70;12.13;;;2.30;96.30;;;;;;6275603;22;19996;-82
2021/01/16 01:10:17;;;;;;;15.50;11.45;;;2.10;94.80;;;;;;6248566;22;20003;-82
2021/01/16 01:12:42;;;;;;;14.13;10.63;;;1.70;93.90;;;;;;6248940;22;20043;-82
2021/01/16 01:15:09;;;;;;;14.63;11.10;;;1.70;95.40;;;;;;6248861;22;20046;-81
2021/01/16 01:17:35;;;;;;;19.33;12.07;;;1.90;94.60;;;;;;6248583;22;20103;-81
2021/01/16 01:20:01;;;;;;;38.58;22.48;;;2.00;95.60;;;;;;6249605;22;20051;-81
2021/01/16 01:22:33;;;;;;;46.90;28.67;;;2.10;99.90;;;;;;6276849;22;20063;-82
2021/01/16 01:24:58;;;;;;;53.83;32.67;;;2.10;99.90;;;;;;6249601;22;20095;-81
2021/01/16 01:27:24;;;;;;;52.58;30.58;;;2.10;99.90;;;;;;6277046;22;20365;-80
2021/01/16 01:29:50;;;;;;;47.38;29.20;;;2.20;99.90;;;;;;6249672;22;20008;-82
2021/01/16 01:32:16;;;;;;;49.00;30.55;;;2.00;99.90;;;;;;6277862;22;20054;-82
2021/01/16 01:34:42;;;;;;;53.45;31.00;;;2.00;99.90;;;;;;6250003;22;20041;-83
2021/01/16 01:37:07;;;;;;;54.80;32.42;;;2.00;99.90;;;;;;6277127;22;20000;-81
2021/01/16 01:39:33;;;;;;;50.80;31.17;;;2.00;99.90;;;;;;6249290;22;20072;-83
2021/01/16 01:41:59;;;;;;;56.30;31.48;;;2.00;99.90;;;;;;6276403;22;20329;-82
2021/01/16 01:44:25;;;;;;;43.13;29.08;;;2.00;99.90;;;;;;6248040;22;20481;-81
2021/01/16 01:46:51;;;;;;;43.25;27.10;;;2.00;99.90;;;;;;6275714;22;20016;-83
2021/01/16 01:49:18;;;;;;;43.13;25.02;;;2.00;99.90;;;;;;6249716;22;20091;-83
2021/01/16 01:51:44;;;;;;;36.05;23.13;;;1.90;99.90;;;;;;6276946;22;19999;-81
2021/01/16 01:54:11;;;;;;;33.72;21.70;;;1.70;99.90;;;;;;6274786;22;20069;-82
2021/01/16 01:56:38;;;;;;;33.00;23.02;;;1.90;99.90;;;;;;6275381;22;20026;-82
2021/01/16 01:59:06;;;;;;;32.28;20.83;;;2.00;99.90;;;;;;6248934;22;20007;-82
2021/01/16 02:01:38;;;;;;;33.97;20.77;;;1.70;99.90;;;;;;6276437;22;20075;-83
2021/01/16 02:04:06;;;;;;;35.17;20.70;;;1.60;99.90;;;;;;6249444;22;20031;-84
2021/01/16 02:06:32;;;;;;;33.30;19.55;;;1.40;99.90;;;;;;6249226;22;19996;-84
2021/01/16 02:08:58;;;;;;;32.22;19.42;;;1.50;99.90;;;;;;6276647;22;20010;-83
2021/01/16 02:11:24;;;;;;;35.10;21.05;;;1.70;99.90;;;;;;6276234;22;20011;-81
2021/01/16 02:13:50;;;;;;;31.77;20.48;;;1.80;99.90;;;;;;6224001;22;20004;-83
2021/01/16 02:16:47;;;;;;;33.03;19.88;;;1.90;99.90;;;;;;6276777;22;20000;-84
2021/01/16 02:19:13;;;;;;;29.88;19.23;;;1.90;99.90;;;;;;6246439;22;20004;-81
2021/01/16 02:21:45;;;;;;;30.77;18.88;;;1.90;99.90;;;;;;6276035;22;20076;-81
2021/01/16 02:24:23;;;;;;;28.60;19.80;;;1.70;99.90;;;;;;6276146;22;20004;-82
2021/01/16 02:27:34;;;;;;;29.02;19.38;;;1.90;99.90;;;;;;6275954;22;20023;-81
2021/01/16 02:30:01;;;;;;;33.50;21.10;;;1.90;99.90;;;;;;6276329;22;20445;-82
2021/01/16 02:32:32;;;;;;;32.45;20.63;;;1.90;99.90;;;;;;6249620;22;20030;-82
2021/01/16 02:34:59;;;;;;;34.40;20.73;;;2.00;99.90;;;;;;6276319;22;20368;-82
2021/01/16 02:37:54;;;;;;;30.35;20.15;;;2.10;99.90;;;;;;6276368;22;20003;-83
2021/01/16 02:40:31;;;;;;;33.20;19.40;;;2.00;99.90;;;;;;6276821;22;20012;-82
2021/01/16 02:43:08;;;;;;;31.33;19.63;;;2.00;99.90;;;;;;6248965;22;20043;-82
2021/01/16 02:46:06;;;;;;;27.77;18.35;;;2.00;99.90;;;;;;6276509;22;20027;-82
2021/01/16 02:49:07;;;;;;;27.98;17.65;;;2.00;99.90;;;;;;6275969;22;20058;-81
2021/01/16 02:51:59;;;;;;;20.13;15.48;;;2.00;99.90;;;;;;6276122;22;20000;-82
2021/01/16 02:54:26;;;;;;;29.40;18.88;;;1.80;99.90;;;;;;6268556;22;20094;-81
2021/01/16 02:56:52;;;;;;;24.38;17.25;;;1.80;99.90;;;;;;6249184;22;20012;-82
2021/01/16 02:59:18;;;;;;;26.08;16.88;;;1.40;99.90;;;;;;6249082;22;20438;-82
2021/01/16 03:01:46;;;;;;;23.98;16.65;;;1.50;99.90;;;;;;6276662;22;19996;-81
2021/01/16 03:04:11;;;;;;;28.60;18.65;;;1.30;99.90;;;;;;6249054;22;20334;-81
2021/01/16 03:06:46;;;;;;;22.77;15.80;;;1.10;99.90;;;;;;6249270;22;20475;-82
2021/01/16 03:09:13;;;;;;;27.23;17.27;;;1.00;99.90;;;;;;6277408;22;20000;-80
2021/01/16 03:11:40;;;;;;;24.38;15.93;;;1.20;99.90;;;;;;6250763;22;20043;-82
2021/01/16 03:14:08;;;;;;;22.98;17.30;;;1.20;99.90;;;;;;6276991;22;20433;-81
2021/01/16 03:16:39;;;;;;;24.73;16.70;;;1.40;99.90;;;;;;6277924;22;20087;-81
2021/01/16 03:19:08;;;;;;;22.67;15.82;;;0.90;99.90;;;;;;6250558;22;20126;-84
2021/01/16 03:21:39;;;;;;;23.27;14.98;;;0.80;99.90;;;;;;6277755;22;20200;-80
2021/01/16 03:24:06;;;;;;;25.20;14.95;;;1.10;99.90;;;;;;6277395;22;20007;-81
2021/01/16 03:26:32;;;;;;;20.23;13.90;;;1.20;99.90;;;;;;6249553;22;20003;-81
2021/01/16 03:28:57;;;;;;;27.98;16.25;;;1.00;99.90;;;;;;6277397;22;20003;-80
2021/01/16 03:31:23;;;;;;;24.13;16.02;;;1.40;99.90;;;;;;6277614;22;20060;-82
2021/01/16 03:33:49;;;;;;;21.15;15.35;;;1.30;99.90;;;;;;6276752;22;20046;-83
2021/01/16 03:36:15;;;;;;;25.15;15.18;;;1.10;99.90;;;;;;6277424;22;20087;-82
2021/01/16 03:38:40;;;;;;;23.00;14.10;;;1.00;99.90;;;;;;6251112;22;20000;-82
2021/01/16 03:41:06;;;;;;;16.95;13.18;;;1.00;99.90;;;;;;6277589;22;20311;-80
2021/01/16 03:43:32;;;;;;;19.20;13.55;;;1.30;99.90;;;;;;6277717;22;20405;-82
2021/01/16 03:45:57;;;;;;;23.73;16.05;;;1.60;99.90;;;;;;6250565;22;20013;-81
2021/01/16 03:48:23;;;;;;;18.27;13.13;;;1.60;99.90;;;;;;6277016;22;20006;-85
2021/01/16 03:50:49;;;;;;;15.55;10.35;;;1.30;99.90;;;;;;6277656;22;20017;-82
2021/01/16 03:53:21;;;;;;;16.02;10.52;;;1.10;99.00;;;;;;6277667;22;20006;-82
2021/01/16 03:55:46;;;;;;;12.23;8.98;;;1.00;99.40;;;;;;6277865;22;20400;-83
2021/01/16 03:58:14;;;;;;;11.30;8.60;;;1.00;98.40;;;;;;6278182;22;20429;-83
2021/01/16 04:00:40;;;;;;;8.63;7.70;;;1.20;97.00;;;;;;6250503;22;20086;-82
2021/01/16 04:03:06;;;;;;;10.82;7.75;;;1.10;96.10;;;;;;6278185;22;20023;-83
2021/01/16 04:05:34;;;;;;;8.25;7.40;;;1.10;95.30;;;;;;6277997;22;20475;-82
2021/01/16 04:08:00;;;;;;;11.25;8.20;;;1.20;93.70;;;;;;6278400;22;20019;-83
2021/01/16 04:11:03;;;;;;;11.00;7.75;;;1.10;96.10;;;;;;6250826;22;20007;-82
2021/01/16 04:13:30;;;;;;;10.40;8.20;;;1.20;96.00;;;;;;6250975;22;20007;-83
2021/01/16 04:16:01;;;;;;;8.82;6.72;;;1.40;93.40;;;;;;6278187;22;20016;-82
2021/01/16 04:18:42;;;;;;;12.45;7.80;;;1.50;91.90;;;;;;6250689;22;20022;-80
2021/01/16 04:21:08;;;;;;;11.45;8.13;;;1.50;93.20;;;;;;6250699;22;20026;-82
2021/01/16 04:23:33;;;;;;;11.05;8.43;;;1.60;92.60;;;;;;6250148;22;20000;-82
2021/01/16 04:26:00;;;;;;;12.77;8.57;;;1.60;92.40;;;;;;6250867;22;20227;-80
2021/01/16 04:28:28;;;;;;;9.77;7.75;;;1.70;91.90;;;;;;6250711;22;20010;-81
2021/01/16 04:31:03;;;;;;;9.45;7.70;;;1.60;88.10;;;;;;6277608;22;20061;-81
2021/01/16 04:33:29;;;;;;;8.68;7.05;;;1.80;90.20;;;;;;6250924;22;20003;-82
2021/01/16 04:35:54;;;;;;;8.02;6.90;;;1.80;86.50;;;;;;6276969;22;20384;-79
2021/01/16 04:38:20;;;;;;;10.27;6.93;;;1.90;86.20;;;;;;6250006;22;20000;-81
2021/01/16 04:40:46;;;;;;;9.43;7.38;;;1.90;84.30;;;;;;6276534;22;19999;-81
2021/01/16 04:43:13;;;;;;;8.60;6.90;;;1.90;82.90;;;;;;6276693;22;20078;-82
2021/01/16 04:45:40;;;;;;;7.95;6.88;;;1.90;81.80;;;;;;6249261;22;20000;-80
2021/01/16 04:48:08;;;;;;;10.07;7.53;;;1.90;81.90;;;;;;6249782;22;20319;-81
2021/01/16 04:50:38;;;;;;;10.32;7.70;;;1.90;81.60;;;;;;6276977;22;20014;-84
2021/01/16 04:53:07;;;;;;;10.23;8.05;;;1.90;81.40;;;;;;6249255;22;20067;-81
2021/01/16 04:55:35;;;;;;;12.77;7.25;;;2.00;81.60;;;;;;6276959;22;20378;-80
2021/01/16 04:58:08;;;;;;;13.07;7.80;;;1.90;81.30;;;;;;6277724;22;19996;-81
2021/01/16 05:00:39;;;;;;;10.75;7.55;;;2.00;82.70;;;;;;6249845;22;20007;-83
2021/01/16 05:03:10;;;;;;;10.88;7.57;;;2.00;82.70;;;;;;6277587;22;20357;-81
2021/01/16 05:05:43;;;;;;;9.20;7.10;;;2.00;82.90;;;;;;6277500;22;19996;-82
2021/01/16 05:08:10;;;;;;;8.43;7.20;;;1.90;82.50;;;;;;6250106;22;20007;-81
2021/01/16 05:10:43;;;;;;;9.48;7.55;;;1.90;83.70;;;;;;6277649;22;20003;-81
2021/01/16 05:13:13;;;;;;;10.50;8.32;;;1.90;85.20;;;;;;6250209;22;20007;-82
2021/01/16 05:15:41;;;;;;;9.07;7.60;;;2.00;85.60;;;;;;6249803;22;20015;-82
2021/01/16 05:18:09;;;;;;;14.50;9.20;;;2.00;86.10;;;;;;6249696;22;20047;-81
2021/01/16 05:20:36;;;;;;;12.45;8.40;;;2.10;85.20;;;;;;6249926;22;20029;-83
2021/01/16 05:23:12;;;;;;;10.90;7.78;;;2.10;84.70;;;;;;6249991;22;20004;-82
2021/01/16 05:25:52;;;;;;;9.95;7.68;;;2.00;85.10;;;;;;6276905;22;20027;-83
2021/01/16 05:28:23;;;;;;;8.98;7.55;;;1.90;85.60;;;;;;6277603;22;20094;-82
2021/01/16 05:30:58;;;;;;;9.57;7.03;;;1.90;85.80;;;;;;6249837;22;20540;-80
2021/01/16 05:33:26;;;;;;;11.15;7.63;;;1.90;86.30;;;;;;6276993;22;20325;-83
2021/01/16 05:35:55;;;;;;;9.43;7.85;;;1.80;87.20;;;;;;6277006;22;20007;-81
2021/01/16 05:38:32;;;;;;;9.32;7.30;;;1.80;88.70;;;;;;6249955;22;20015;-81
2021/01/16 05:40:59;;;;;;;11.77;7.78;;;1.80;89.50;;;;;;6249967;22;20000;-80
2021/01/16 05:43:26;;;;;;;10.95;7.63;;;1.80;91.00;;;;;;6249726;22;20004;-81
2021/01/16 05:46:00;;;;;;;7.68;6.45;;;1.70;91.40;;;;;;6249789;22;20325;-82
2021/01/16 05:48:48;;;;;;;9.45;6.93;;;1.60;92.30;;;;;;6276465;22;20010;-81
2021/01/16 05:51:20;;;;;;;9.43;7.13;;;1.60;93.20;;;;;;6276942;22;20003;-82
2021/01/16 05:53:50;;;;;;;11.30;6.88;;;1.70;93.80;;;;;;6249860;22;20338;-82
2021/01/16 05:56:17;;;;;;;9.93;7.28;;;1.60;94.30;;;;;;6275838;22;20129;-81
2021/01/16 05:58:47;;;;;;;10.05;6.80;;;1.60;94.10;;;;;;6249660;22;20002;-80
2021/01/16 06:01:23;;;;;;;8.85;7.32;;;1.60;93.60;;;;;;6276743;22;20035;-80
2021/01/16 06:03:57;;;;;;;8.82;7.05;;;1.60;93.00;;;;;;6249510;22;20007;-81
2021/01/16 06:06:23;;;;;;;7.97;6.93;;;1.60;92.10;;;;;;6276886;22;20321;-80
2021/01/16 06:08:50;;;;;;;10.88;5.95;;;1.40;91.70;;;;;;6276747;22;20436;-80
2021/01/16 06:11:16;;;;;;;9.73;6.50;;;1.40;91.00;;;;;;6276765;22;20000;-81
2021/01/16 06:13:43;;;;;;;9.15;6.85;;;0.90;92.50;;;;;;6276674;22;20000;-81
2021/01/16 06:16:18;;;;;;;8.52;6.75;;;0.70;93.10;;;;;;6249222;22;20019;-81
2021/01/16 06:18:48;;;;;;;9.38;7.15;;;0.80;94.30;;;;;;6276658;22;20019;-81
2021/01/16 06:21:30;;;;;;;10.02;7.45;;;0.90;95.00;;;;;;6249594;22;20007;-81
2021/01/16 06:24:00;;;;;;;13.10;7.43;;;0.90;94.30;;;;;;6249519;22;20031;-81
2021/01/16 06:26:27;;;;;;;12.77;7.35;;;1.00;94.20;;;;;;6276335;22;20306;-80
2021/01/16 06:29:01;;;;;;;11.45;7.40;;;0.60;95.30;;;;;;6249339;22;20007;-81
2021/01/16 06:31:31;;;;;;;9.88;7.55;;;0.50;95.60;;;;;;6276491;22;20008;-82
2021/01/16 06:33:59;;;;;;;8.75;6.93;;;0.40;95.50;;;;;;6277173;22;20364;-81
2021/01/16 06:36:27;;;;;;;9.25;7.03;;;0.60;89.50;;;;;;6277259;22;20007;-80
2021/01/16 06:38:56;;;;;;;9.45;6.53;;;0.90;89.70;;;;;;6249752;22;19995;-80
2021/01/16 06:41:34;;;;;;;9.07;6.53;;;0.90;85.90;;;;;;6248798;22;20380;-79
2021/01/16 06:44:00;;;;;;;11.23;7.30;;;1.00;86.50;;;;;;6249627;22;20045;-80
2021/01/16 06:46:43;;;;;;;11.30;7.28;;;1.20;84.30;;;;;;6250667;22;20035;-79
2021/01/16 06:49:36;;;;;;;9.73;7.38;;;1.20;85.80;;;;;;6250631;22;20088;-80
2021/01/16 06:52:04;;;;;;;14.73;7.47;;;0.90;86.80;;;;;;6271766;22;20062;-79
2021/01/16 06:54:33;;;;;;;11.27;6.05;;;0.40;88.50;;;;;;6277915;22;20384;-78
2021/01/16 06:57:14;;;;;;;7.63;6.00;;;0.30;87.10;;;;;;6277955;22;20004;-81
2021/01/16 06:59:41;;;;;;;8.73;6.78;;;0.20;86.10;;;;;;6250966;22;20139;-78
2021/01/16 07:02:26;;;;;;;9.95;6.55;;;0.30;85.10;;;;;;6251038;22;20344;-79
2021/01/16 07:05:04;;;;;;;9.95;6.60;;;0.60;86.40;;;;;;6250887;22;20099;-83
2021/01/16 07:07:38;;;;;;;11.02;7.10;;;0.80;85.60;;;;;;6277686;22;20046;-79
2021/01/16 07:10:14;;;;;;;10.48;6.47;;;0.40;85.80;;;;;;6251567;22;20019;-80
2021/01/16 07:15:17;;;;;;;12.10;6.93;;;0.60;83.30;;;;;;6157742;23;20023;-80
2021/01/16 07:17:44;;;;;;;11.65;7.50;;;0.80;86.70;;;;;;6157153;23;20007;-81
2021/01/16 07:20:11;;;;;;;10.32;6.45;;;0.30;85.60;;;;;;6157936;23;20004;-81
2021/01/16 07:22:41;;;;;;;8.82;6.22;;;0.30;85.70;;;;;;6157841;23;20005;-82
2021/01/16 07:25:09;;;;;;;10.40;7.07;;;0.30;86.20;;;;;;6157695;23;20059;-81
2021/01/16 07:27:36;;;;;;;8.65;6.97;;;0.60;89.30;;;;;;6157556;23;19994;-82
2021/01/16 07:30:08;;;;;;;10.15;7.10;;;0.80;86.70;;;;;;6174750;23;20012;-83
2021/01/16 07:32:43;;;;;;;10.05;6.65;;;0.90;83.90;;;;;;6161220;23;20300;-83
2021/01/16 07:35:33;;;;;;;7.90;6.50;;;0.60;84.20;;;;;;6200482;22;20012;-83
2021/01/16 07:38:02;;;;;;;10.40;7.35;;;0.60;84.50;;;;;;6277687;22;20007;-82
2021/01/16 07:40:30;;;;;;;12.05;6.88;;;0.90;84.80;;;;;;6278452;22;20023;-83
2021/01/16 07:43:24;;;;;;;9.75;6.20;;;1.00;84.90;;;;;;6250823;22;20298;-81
2021/01/16 07:45:53;;;;;;;11.93;6.63;;;1.00;82.10;;;;;;6278278;22;20000;-81
2021/01/16 07:48:21;;;;;;;17.15;7.18;;;0.90;84.40;;;;;;6278270;22;20046;-81
2021/01/16 07:50:52;;;;;;;8.88;6.80;;;0.60;83.10;;;;;;6278203;22;20000;-82
2021/01/16 07:53:26;;;;;;;9.35;6.53;;;0.60;84.10;;;;;;6250530;22;20008;-84
2021/01/16 07:56:06;;;;;;;9.65;6.75;;;0.70;82.80;;;;;;6250716;22;20012;-80
2021/01/16 07:59:17;;;;;;;11.23;7.35;;;0.90;79.40;;;;;;6277676;22;20524;-81
2021/01/16 08:01:59;;;;;;;8.57;7.30;;;1.10;82.00;;;;;;6277610;22;19995;-80
2021/01/16 08:04:25;;;;;;;10.48;6.65;;;0.90;81.20;;;;;;6251662;22;20011;-82
2021/01/16 08:07:08;;;;;;;11.15;7.45;;;0.70;80.10;;;;;;6250439;22;20000;-82
2021/01/16 08:09:49;;;;;;;11.38;7.25;;;0.60;81.50;;;;;;6251673;22;20018;-82
2021/01/16 08:12:19;;;;;;;11.07;7.50;;;0.70;82.20;;;;;;6250579;22;20011;-83
2021/01/16 08:14:47;;;;;;;16.90;7.55;;;0.90;82.50;;;;;;6251008;22;20061;-83
2021/01/16 08:17:26;;;;;;;10.63;7.78;;;0.60;81.00;;;;;;6277555;22;20004;-82
2021/01/16 08:20:01;;;;;;;10.13;7.10;;;0.60;81.10;;;;;;6278288;22;20027;-81
2021/01/16 08:22:43;;;;;;;11.27;7.30;;;0.90;81.10;;;;;;6251198;22;20023;-82
2021/01/16 08:25:13;;;;;;;10.65;7.28;;;1.40;79.80;;;;;;6277833;22;19996;-85
2021/01/16 08:27:40;;;;;;;9.27;7.07;;;1.40;77.10;;;;;;6277089;22;20007;-83
2021/01/16 08:30:15;;;;;;;10.48;7.60;;;1.40;77.20;;;;;;6277442;22;20006;-81
2021/01/16 08:33:12;;;;;;;11.45;7.25;;;1.30;74.30;;;;;;6276799;22;20010;-82
2021/01/16 08:35:38;;;;;;;29.48;15.63;;;0.90;72.50;;;;;;6243112;22;20031;-82
2021/01/16 08:38:16;;;;;;;10.40;7.35;;;1.40;73.90;;;;;;6219948;23;20396;-82
2021/01/16 08:41:03;;;;;;;8.25;6.43;;;1.20;71.00;;;;;;6220021;23;20004;-81
2021/01/16 08:43:40;;;;;;;9.35;7.03;;;1.00;71.50;;;;;;6245932;23;20020;-80
2021/01/16 08:46:12;;;;;;;9.00;7.20;;;1.00;70.60;;;;;;6246840;23;20003;-86
2021/01/16 08:52:03;;;;;;;7.78;6.40;;;0.60;70.80;;;;;;6246369;23;20035;-83
2021/01/16 08:54:29;;;;;;;7.95;6.13;;;1.00;70.00;;;;;;6219381;23;20318;-79
2021/01/16 08:57:17;;;;;;;13.98;6.60;;;1.70;69.80;;;;;;6219371;23;20430;-83
2021/01/16 08:59:44;;;;;;;7.75;5.88;;;2.20;67.70;;;;;;6219593;23;20027;-83
2021/01/16 09:02:22;;;;;;;9.75;6.63;;;1.80;63.00;;;;;;6219993;23;20157;-83
2021/01/16 09:04:50;;;;;;;10.02;6.30;;;1.90;63.70;;;;;;6244752;23;20050;-83
2021/01/16 09:07:24;;;;;;;7.90;6.40;;;1.70;62.00;;;;;;6217546;23;20402;-81
2021/01/16 09:10:01;;;;;;;8.35;6.75;;;2.10;61.50;;;;;;6244800;23;20380;-82
2021/01/16 09:12:34;;;;;;;10.43;6.55;;;2.50;60.20;;;;;;6245808;23;19996;-81
2021/01/16 09:15:25;;;;;;;7.93;6.53;;;1.80;61.50;;;;;;6218395;23;20019;-81
2021/01/16 09:18:12;;;;;;;9.07;6.22;;;1.70;64.40;;;;;;6218579;23;20008;-83
2021/01/16 09:21:10;;;;;;;9.65;6.53;;;1.60;63.50;;;;;;6214253;23;20011;-84
2021/01/16 09:23:38;;;;;;;8.65;6.10;;;1.40;62.20;;;;;;6115934;23;20083;-83
2021/01/16 09:26:40;;;;;;;7.68;6.18;;;1.30;63.00;;;;;;6219574;23;20083;-84
2021/01/16 09:29:04;;;;;;;7.25;5.68;;;1.40;63.20;;;;;;6240940;22;20028;-80
2021/01/16 09:31:46;;;;;;;8.25;6.38;;;1.40;61.80;;;;;;6219580;23;20016;-81
2021/01/16 09:34:44;;;;;;;9.02;6.78;;;1.30;61.60;;;;;;6219759;23;20058;-83
2021/01/16 09:37:41;;;;;;;12.20;7.28;;;1.20;62.70;;;;;;6252135;22;20012;-82
2021/01/16 09:40:09;;;;;;;9.68;7.45;;;1.60;63.90;;;;;;6218394;23;20091;-84
2021/01/16 09:42:46;;;;;;;8.77;6.85;;;1.60;63.30;;;;;;6247073;23;19996;-84
2021/01/16 09:45:50;;;;;;;9.10;6.93;;;2.10;62.60;;;;;;6220301;23;20012;-84
2021/01/16 09:48:32;;;;;;;9.48;6.72;;;3.50;60.90;;;;;;6246282;23;20015;-85
2021/01/16 09:51:01;;;;;;;11.90;6.93;;;3.70;60.50;;;;;;6245995;23;20034;-83
2021/01/16 09:53:28;;;;;;;8.27;6.78;;;3.80;60.80;;;;;;6222714;23;20008;-82
2021/01/16 09:55:54;;;;;;;10.98;7.10;;;2.90;61.60;;;;;;6221673;23;20023;-89
2021/01/16 09:58:40;;;;;;;13.98;8.57;;;2.20;63.30;;;;;;6245704;23;19996;-82
2021/01/16 10:01:23;;;;;;;22.27;13.68;;;2.00;67.50;;;;;;6218638;23;20408;-79
2021/01/16 10:03:50;;;;;;;14.77;7.50;;;2.40;69.70;;;;;;6247173;23;20004;-82
2021/01/16 10:06:19;;;;;;;12.88;7.05;;;2.10;68.60;;;;;;6248058;23;20363;-86
2021/01/16 10:09:04;;;;;;;11.05;8.00;;;2.20;69.20;;;;;;6246723;23;20334;-82
2021/01/16 10:12:13;;;;;;;8.23;6.38;;;1.90;71.10;;;;;;6246910;23;20003;-81
2021/01/16 10:15:18;;;;;;;8.10;6.53;;;2.30;69.80;;;;;;6246628;23;20015;-84
2021/01/16 10:17:57;;;;;;;9.15;6.68;;;2.30;67.00;;;;;;6248733;23;20005;-88
2021/01/16 10:20:33;;;;;;;8.90;6.60;;;1.80;67.80;;;;;;6249226;23;20007;-80
2021/01/16 10:23:04;;;;;;;9.38;6.60;;;2.00;70.80;;;;;;6221570;23;20370;-84
2021/01/16 10:25:41;;;;;;;10.10;7.43;;;1.50;65.20;;;;;;6246551;23;20032;-87
2021/01/16 10:28:11;;;;;;;9.93;7.18;;;2.10;68.40;;;;;;6219820;23;20398;-81
2021/01/16 10:30:51;;;;;;;8.27;6.65;;;2.20;69.80;;;;;;6245517;22;20008;-82
2021/01/16 10:33:21;;;;;;;;;;;2.10;70.10;;;;;;6246633;23;20004;-82
2021/01/16 10:36:04;;;;;;;8.57;6.37;;;2.40;65.60;;;;;;6195523;23;19938;-83
2021/01/16 10:38:52;;;;;;;9.60;7.00;;;3.30;65.10;;;;;;6277584;22;20007;-83
2021/01/16 10:41:49;;;;;;;14.98;10.05;;;3.90;61.40;;;;;;6249399;22;20429;-82
2021/01/16 10:44:51;;;;;;;12.63;7.93;;;3.80;60.90;;;;;;6276203;22;19999;-81
2021/01/16 10:49:57;;;;;;;19.05;10.77;;;3.20;59.50;;;;;;6265821;22;20108;-82
2021/01/16 10:52:29;;;;;;;15.60;9.70;;;4.10;56.40;;;;;;6249173;22;20003;-84
2021/01/16 10:55:05;;;;;;;12.43;6.68;;;3.50;57.90;;;;;;6248476;22;20325;-79
2021/01/16 10:57:43;;;;;;;9.88;6.35;;;3.20;60.20;;;;;;6250348;22;20447;-90
2021/01/16 11:00:15;;;;;;;9.15;6.72;;;2.40;60.10;;;;;;6277408;22;20053;-85
2021/01/16 11:03:16;;;;;;;11.15;6.60;;;2.20;62.20;;;;;;6249570;22;20330;-80
2021/01/16 11:05:48;;;;;;;8.55;6.65;;;2.80;59.40;;;;;;6252877;22;20069;-83
2021/01/16 11:08:25;;;;;;;10.68;7.15;;;2.90;58.80;;;;;;6250974;22;20008;-80
2021/01/16 11:10:51;;;;;;;11.13;7.22;;;3.20;58.20;;;;;;6249356;22;20114;-83
2021/01/16 11:13:22;;;;;;;8.07;6.63;;;3.30;57.20;;;;;;6276188;22;20015;-79
2021/01/16 11:15:56;;;;;;;10.02;7.25;;;3.20;56.70;;;;;;6277890;22;20003;-83
2021/01/16 11:18:30;;;;;;;14.18;8.98;;;3.40;56.30;;;;;;6251715;22;19996;-81
2021/01/16 11:21:02;;;;;;;156.43;69.70;;;3.40;55.80;;;;;;6280869;22;20334;-85
2021/01/16 11:23:34;;;;;;;14.20;9.90;;;3.60;56.10;;;;;;6278818;22;20325;-82
2021/01/16 11:26:09;;;;;;;8.57;7.03;;;3.70;55.70;;;;;;6253895;22;20065;-86
2021/01/16 11:28:55;;;;;;;8.52;6.10;;;3.70;56.10;;;;;;6251172;22;20000;-84
2021/01/16 11:31:33;;;;;;;7.85;6.10;;;4.50;55.10;;;;;;6249489;22;20004;-80
2021/01/16 11:34:18;;;;;;;13.13;6.25;;;4.60;52.90;;;;;;6249714;22;20022;-84
2021/01/16 11:36:54;;;;;;;9.55;6.47;;;4.20;52.60;;;;;;6250176;22;20054;-82
2021/01/16 11:39:46;;;;;;;8.70;6.88;;;3.90;52.60;;;;;;6250937;22;20438;-81
2021/01/16 11:42:30;;;;;;;8.35;6.45;;;3.80;52.70;;;;;;6250868;22;20141;-82
2021/01/16 11:44:58;;;;;;;7.78;6.20;;;3.90;53.70;;;;;;6248737;22;20421;-81
2021/01/16 11:47:26;;;;;;;8.35;6.38;;;4.10;51.10;;;;;;6248931;22;20372;-80
2021/01/16 11:49:53;;;;;;;7.78;5.55;;;3.90;48.80;;;;;;6276105;22;20016;-80
2021/01/16 11:52:22;;;;;;;7.88;5.93;;;3.90;47.30;;;;;;6277496;22;20061;-80
2021/01/16 11:54:51;;;;;;;7.40;5.68;;;5.00;48.00;;;;;;6248446;22;20103;-80
2021/01/16 11:57:25;;;;;;;6.70;5.90;;;5.20;46.50;;;;;;6275999;22;20384;-81
2021/01/16 11:59:55;;;;;;;8.05;5.90;;;5.60;46.00;;;;;;6276173;22;20352;-83
2021/01/16 12:02:22;;;;;;;6.80;5.43;;;5.00;44.20;;;;;;6249216;22;20082;-80
2021/01/16 12:04:48;;;;;;;6.82;5.70;;;4.50;44.60;;;;;;6276758;22;20007;-83
2021/01/16 12:07:18;;;;;;;8.15;5.80;;;4.20;45.20;;;;;;6248998;22;20003;-81
2021/01/16 12:09:45;;;;;;;8.60;6.22;;;3.90;44.80;;;;;;6249616;22;20015;-82
2021/01/16 12:12:12;;;;;;;9.77;6.85;;;3.80;46.10;;;;;;6276244;22;20003;-85
2021/01/16 12:14:39;;;;;;;8.75;6.15;;;3.70;47.40;;;;;;6249437;22;20012;-81
2021/01/16 12:17:13;;;;;;;7.68;5.90;;;3.80;47.30;;;;;;6275377;22;19995;-82
2021/01/16 12:19:42;;;;;;;6.90;5.90;;;3.90;47.70;;;;;;6275825;22;20003;-84
2021/01/16 12:22:09;;;;;;;11.70;6.97;;;3.80;48.00;;;;;;6275704;22;20000;-79
2021/01/16 12:24:36;;;;;;;8.68;6.20;;;3.80;48.80;;;;;;6275397;22;20000;-78
2021/01/16 12:27:07;;;;;;;8.70;6.40;;;3.70;48.50;;;;;;6247457;22;20011;-82
2021/01/16 12:29:47;;;;;;;11.57;6.43;;;3.70;48.80;;;;;;6276129;22;20012;-83
2021/01/16 12:32:15;;;;;;;9.65;6.55;;;3.70;49.00;;;;;;6275803;22;20008;-81
2021/01/16 12:34:49;;;;;;;9.23;6.75;;;3.70;48.70;;;;;;6275929;22;20007;-80
2021/01/16 12:37:30;;;;;;;10.30;7.05;;;3.90;49.20;;;;;;6275785;22;20097;-84
2021/01/16 12:40:00;;;;;;;11.18;7.00;;;4.20;52.40;;;;;;6276646;22;20000;-81
2021/01/16 12:42:29;;;;;;;44.90;25.25;;;3.20;52.50;;;;;;6275901;22;20357;-84
2021/01/16 12:45:08;;;;;;;49.88;24.60;;;4.70;63.20;;;;;;6276735;22;20015;-81
2021/01/16 12:47:35;;;;;;;12.98;8.88;;;5.50;50.90;;;;;;6224992;22;20489;-85
2021/01/16 12:50:02;;;;;;;10.82;7.78;;;4.20;48.30;;;;;;6248351;22;20094;-83
2021/01/16 12:53:19;;;;;;;9.70;7.00;;;4.60;49.10;;;;;;6226819;22;20007;-81
2021/01/16 12:55:45;;;;;;;9.68;7.20;;;4.50;47.50;;;;;;6093498;23;20092;-82
2021/01/16 12:58:11;;;;;;;10.60;6.60;;;4.20;47.80;;;;;;6095059;23;20078;-83
2021/01/16 13:00:39;;;;;;;8.82;6.75;;;3.90;48.00;;;;;;6177967;22;20008;-85
2021/01/16 13:03:05;;;;;;;9.45;6.93;;;3.80;48.60;;;;;;6240630;22;20008;-79
2021/01/16 13:05:36;;;;;;;11.27;8.20;;;3.70;49.90;;;;;;6243445;22;20000;-85
2021/01/16 13:08:14;;;;;;;9.13;6.97;;;3.70;50.70;;;;;;6247074;22;19995;-81
2021/01/16 13:10:49;;;;;;;10.75;6.50;;;3.60;50.50;;;;;;6273881;22;20168;-86
2021/01/16 13:13:16;;;;;;;10.90;7.30;;;3.40;50.00;;;;;;6244748;22;20087;-82
2021/01/16 13:15:47;;;;;;;8.48;6.63;;;3.30;50.50;;;;;;6272149;22;20004;-80
2021/01/16 13:18:22;;;;;;;10.20;7.50;;;3.30;51.20;;;;;;6271252;22;20010;-79
2021/01/16 13:20:53;;;;;;;10.77;7.32;;;3.30;51.00;;;;;;6272051;22;20003;-82
2021/01/16 13:23:39;;;;;;;10.95;7.47;;;3.20;50.40;;;;;;6271859;22;20061;-81
2021/01/16 13:26:06;;;;;;;8.77;6.70;;;3.20;49.80;;;;;;6273826;22;20060;-79